sensor_id;sensor_type;location;lat;lon;timestamp;P1;durP1;ratioP1;P2;durP2;ratioP2
39078;SDS011;24829;49.208;12.080;2022-09-13T00:01:16;9.55;;;7.78;;
39078;SDS011;24829;49.208;12.080;2022-09-13T00:03:41;8.52;;;7.55;;
39078;SDS011;24829;49.208;12.080;2022-09-13T00:06:14;9.05;;;7.25;;
39078;SDS011;24829;49.208;12.080;2022-09-13T00:08:42;10.32;;;8.68;;
39078;SDS011;24829;49.208;12.080;2022-09-13T00:11:12;10.90;;;7.90;;
39078;SDS011;24829;49.208;12.080;2022-09-13T00:13:43;9.18;;;8.23;;
39078;SDS011;24829;49.208;12.080;2022-09-13T00:16:12;13.05;;;8.07;;
39078;SDS011;24829;49.208;12.080;2022-09-13T00:18:39;12.23;;;8.43;;
39078;SDS011;24829;49.208;12.080;2022-09-13T00:21:09;10.20;;;7.60;;
39078;SDS011;24829;49.208;12.080;2022-09-13T00:26:24;10.25;;;8.23;;
39078;SDS011;24829;49.208;12.080;2022-09-13T00:28:53;10.80;;;8.27;;
39078;SDS011;24829;49.208;12.080;2022-09-13T00:31:20;11.52;;;7.95;;
39078;SDS011;24829;49.208;12.080;2022-09-13T00:33:48;10.70;;;7.38;;
39078;SDS011;24829;49.208;12.080;2022-09-13T00:36:14;12.05;;;9.50;;
39078;SDS011;24829;49.208;12.080;2022-09-13T00:38:41;14.73;;;8.90;;
39078;SDS011;24829;49.208;12.080;2022-09-13T00:41:09;11.70;;;7.78;;
39078;SDS011;24829;49.208;12.080;2022-09-13T00:43:51;9.68;;;8.57;;
39078;SDS011;24829;49.208;12.080;2022-09-13T00:46:20;9.32;;;7.80;;
39078;SDS011;24829;49.208;12.080;2022-09-13T00:51:44;11.32;;;8.27;;
39078;SDS011;24829;49.208;12.080;2022-09-13T00:54:15;9.50;;;7.67;;
39078;SDS011;24829;49.208;12.080;2022-09-13T00:56:44;10.77;;;8.60;;
39078;SDS011;24829;49.208;12.080;2022-09-13T00:59:17;10.80;;;8.23;;
39078;SDS011;24829;49.208;12.080;2022-09-13T01:01:52;11.55;;;8.32;;
39078;SDS011;24829;49.208;12.080;2022-09-13T01:04:20;10.65;;;8.27;;
39078;SDS011;24829;49.208;12.080;2022-09-13T01:06:48;15.30;;;7.80;;
39078;SDS011;24829;49.208;12.080;2022-09-13T01:09:18;10.27;;;8.00;;
39078;SDS011;24829;49.208;12.080;2022-09-13T01:12:03;10.80;;;8.27;;
39078;SDS011;24829;49.208;12.080;2022-09-13T01:14:38;13.23;;;9.55;;
39078;SDS011;24829;49.208;12.080;2022-09-13T01:17:04;11.30;;;8.43;;
39078;SDS011;24829;49.208;12.080;2022-09-13T01:19:30;11.65;;;7.70;;
39078;SDS011;24829;49.208;12.080;2022-09-13T01:38:16;12.68;;;8.30;;
39078;SDS011;24829;49.208;12.080;2022-09-13T01:41:07;8.90;;;7.20;;
39078;SDS011;24829;49.208;12.080;2022-09-13T01:43:55;9.45;;;6.65;;
39078;SDS011;24829;49.208;12.080;2022-09-13T01:57:52;8.35;;;6.30;;
39078;SDS011;24829;49.208;12.080;2022-09-13T02:00:51;8.63;;;5.50;;
39078;SDS011;24829;49.208;12.080;2022-09-13T02:03:37;9.65;;;6.85;;
39078;SDS011;24829;49.208;12.080;2022-09-13T02:06:48;11.75;;;6.80;;
39078;SDS011;24829;49.208;12.080;2022-09-13T02:09:22;10.25;;;7.57;;
39078;SDS011;24829;49.208;12.080;2022-09-13T02:11:51;12.05;;;7.90;;
39078;SDS011;24829;49.208;12.080;2022-09-13T02:14:30;9.30;;;7.47;;
39078;SDS011;24829;49.208;12.080;2022-09-13T02:17:03;13.77;;;7.10;;
39078;SDS011;24829;49.208;12.080;2022-09-13T02:19:40;13.35;;;7.55;;
39078;SDS011;24829;49.208;12.080;2022-09-13T02:22:20;11.18;;;7.13;;
39078;SDS011;24829;49.208;12.080;2022-09-13T02:24:56;11.55;;;8.27;;
39078;SDS011;24829;49.208;12.080;2022-09-13T02:27:27;10.98;;;8.15;;
39078;SDS011;24829;49.208;12.080;2022-09-13T02:29:57;16.10;;;7.70;;
39078;SDS011;24829;49.208;12.080;2022-09-13T02:32:32;9.98;;;7.95;;
39078;SDS011;24829;49.208;12.080;2022-09-13T02:35:11;16.55;;;9.88;;
39078;SDS011;24829;49.208;12.080;2022-09-13T02:37:43;15.70;;;9.45;;
39078;SDS011;24829;49.208;12.080;2022-09-13T02:40:14;12.50;;;9.30;;
39078;SDS011;24829;49.208;12.080;2022-09-13T02:42:48;11.32;;;7.93;;
39078;SDS011;24829;49.208;12.080;2022-09-13T02:45:21;11.20;;;8.30;;
39078;SDS011;24829;49.208;12.080;2022-09-13T02:47:58;11.40;;;7.80;;
39078;SDS011;24829;49.208;12.080;2022-09-13T02:59:14;8.48;;;6.63;;
39078;SDS011;24829;49.208;12.080;2022-09-13T03:01:44;10.23;;;6.32;;
39078;SDS011;24829;49.208;12.080;2022-09-13T03:04:16;7.68;;;6.05;;
39078;SDS011;24829;49.208;12.080;2022-09-13T03:06:42;13.98;;;7.50;;
39078;SDS011;24829;49.208;12.080;2022-09-13T03:09:08;11.82;;;8.80;;
39078;SDS011;24829;49.208;12.080;2022-09-13T03:12:10;10.88;;;8.50;;
39078;SDS011;24829;49.208;12.080;2022-09-13T03:23:17;8.10;;;7.20;;
39078;SDS011;24829;49.208;12.080;2022-09-13T03:28:55;11.30;;;7.55;;
39078;SDS011;24829;49.208;12.080;2022-09-13T03:31:32;6.97;;;5.90;;
39078;SDS011;24829;49.208;12.080;2022-09-13T03:39:42;46.88;;;9.85;;
39078;SDS011;24829;49.208;12.080;2022-09-13T03:42:27;13.00;;;9.10;;
39078;SDS011;24829;49.208;12.080;2022-09-13T03:45:00;13.88;;;9.43;;
39078;SDS011;24829;49.208;12.080;2022-09-13T03:47:28;36.42;;;9.30;;
39078;SDS011;24829;49.208;12.080;2022-09-13T03:49:57;43.55;;;9.25;;
39078;SDS011;24829;49.208;12.080;2022-09-13T03:52:24;64.95;;;9.57;;
39078;SDS011;24829;49.208;12.080;2022-09-13T03:54:51;18.80;;;9.20;;
39078;SDS011;24829;49.208;12.080;2022-09-13T03:57:18;18.42;;;9.00;;
39078;SDS011;24829;49.208;12.080;2022-09-13T03:59:46;17.67;;;10.57;;
39078;SDS011;24829;49.208;12.080;2022-09-13T04:02:12;13.98;;;8.55;;
39078;SDS011;24829;49.208;12.080;2022-09-13T04:04:39;37.50;;;9.27;;
39078;SDS011;24829;49.208;12.080;2022-09-13T04:07:05;59.28;;;8.60;;
39078;SDS011;24829;49.208;12.080;2022-09-13T04:09:31;26.67;;;8.82;;
39078;SDS011;24829;49.208;12.080;2022-09-13T04:11:57;21.77;;;8.40;;
39078;SDS011;24829;49.208;12.080;2022-09-13T04:14:23;31.67;;;8.30;;
39078;SDS011;24829;49.208;12.080;2022-09-13T04:16:50;13.55;;;8.18;;
39078;SDS011;24829;49.208;12.080;2022-09-13T04:19:20;11.20;;;7.80;;
39078;SDS011;24829;49.208;12.080;2022-09-13T04:21:47;9.82;;;7.28;;
39078;SDS011;24829;49.208;12.080;2022-09-13T04:24:17;34.67;;;8.40;;
39078;SDS011;24829;49.208;12.080;2022-09-13T04:26:43;29.42;;;8.55;;
39078;SDS011;24829;49.208;12.080;2022-09-13T04:29:09;28.23;;;8.57;;
39078;SDS011;24829;49.208;12.080;2022-09-13T04:31:35;28.98;;;8.63;;
39078;SDS011;24829;49.208;12.080;2022-09-13T04:34:01;18.60;;;8.00;;
39078;SDS011;24829;49.208;12.080;2022-09-13T04:36:27;27.92;;;8.23;;
39078;SDS011;24829;49.208;12.080;2022-09-13T04:38:53;36.95;;;10.10;;
39078;SDS011;24829;49.208;12.080;2022-09-13T04:41:19;50.53;;;10.93;;
39078;SDS011;24829;49.208;12.080;2022-09-13T04:43:47;49.05;;;10.43;;
39078;SDS011;24829;49.208;12.080;2022-09-13T04:46:14;43.53;;;11.68;;
39078;SDS011;24829;49.208;12.080;2022-09-13T04:48:40;28.00;;;11.30;;
39078;SDS011;24829;49.208;12.080;2022-09-13T04:51:06;34.17;;;10.70;;
39078;SDS011;24829;49.208;12.080;2022-09-13T04:53:32;23.50;;;10.23;;
39078;SDS011;24829;49.208;12.080;2022-09-13T04:56:00;26.77;;;9.95;;
39078;SDS011;24829;49.208;12.080;2022-09-13T04:58:27;13.07;;;8.55;;
39078;SDS011;24829;49.208;12.080;2022-09-13T05:00:52;19.33;;;8.63;;
39078;SDS011;24829;49.208;12.080;2022-09-13T05:03:21;17.33;;;9.27;;
39078;SDS011;24829;49.208;12.080;2022-09-13T05:05:46;29.63;;;7.30;;
39078;SDS011;24829;49.208;12.080;2022-09-13T05:08:12;17.38;;;8.20;;
39078;SDS011;24829;49.208;12.080;2022-09-13T05:10:38;23.63;;;6.85;;
39078;SDS011;24829;49.208;12.080;2022-09-13T05:13:03;15.82;;;7.72;;
39078;SDS011;24829;49.208;12.080;2022-09-13T05:15:29;34.60;;;7.93;;
39078;SDS011;24829;49.208;12.080;2022-09-13T05:17:54;34.58;;;9.85;;
39078;SDS011;24829;49.208;12.080;2022-09-13T05:20:20;19.90;;;8.55;;
39078;SDS011;24829;49.208;12.080;2022-09-13T05:22:45;27.17;;;9.02;;
39078;SDS011;24829;49.208;12.080;2022-09-13T05:25:11;58.25;;;10.00;;
39078;SDS011;24829;49.208;12.080;2022-09-13T05:27:37;56.72;;;10.75;;
39078;SDS011;24829;49.208;12.080;2022-09-13T05:30:03;30.38;;;10.00;;
39078;SDS011;24829;49.208;12.080;2022-09-13T05:32:30;22.85;;;10.35;;
39078;SDS011;24829;49.208;12.080;2022-09-13T05:34:56;15.25;;;7.38;;
39078;SDS011;24829;49.208;12.080;2022-09-13T05:37:21;22.25;;;7.55;;
39078;SDS011;24829;49.208;12.080;2022-09-13T05:39:47;14.45;;;8.20;;
39078;SDS011;24829;49.208;12.080;2022-09-13T05:42:12;18.67;;;7.28;;
39078;SDS011;24829;49.208;12.080;2022-09-13T05:44:38;43.78;;;7.88;;
39078;SDS011;24829;49.208;12.080;2022-09-13T05:47:04;22.17;;;8.57;;
39078;SDS011;24829;49.208;12.080;2022-09-13T05:49:29;23.38;;;9.00;;
39078;SDS011;24829;49.208;12.080;2022-09-13T05:51:55;24.67;;;9.82;;
39078;SDS011;24829;49.208;12.080;2022-09-13T05:54:20;38.83;;;9.02;;
39078;SDS011;24829;49.208;12.080;2022-09-13T05:56:46;35.03;;;8.93;;
39078;SDS011;24829;49.208;12.080;2022-09-13T05:59:12;20.23;;;8.55;;
39078;SDS011;24829;49.208;12.080;2022-09-13T06:01:40;26.05;;;8.95;;
39078;SDS011;24829;49.208;12.080;2022-09-13T06:04:06;19.02;;;8.77;;
39078;SDS011;24829;49.208;12.080;2022-09-13T06:06:31;17.15;;;8.60;;
39078;SDS011;24829;49.208;12.080;2022-09-13T06:08:59;12.98;;;8.75;;
39078;SDS011;24829;49.208;12.080;2022-09-13T06:11:25;18.25;;;8.90;;
39078;SDS011;24829;49.208;12.080;2022-09-13T06:13:50;13.18;;;9.40;;
39078;SDS011;24829;49.208;12.080;2022-09-13T06:16:17;16.10;;;8.95;;
39078;SDS011;24829;49.208;12.080;2022-09-13T06:18:43;13.70;;;9.50;;
39078;SDS011;24829;49.208;12.080;2022-09-13T06:21:10;21.15;;;9.93;;
39078;SDS011;24829;49.208;12.080;2022-09-13T06:26:08;22.33;;;8.95;;
39078;SDS011;24829;49.208;12.080;2022-09-13T06:28:35;32.88;;;9.90;;
39078;SDS011;24829;49.208;12.080;2022-09-13T06:31:05;24.35;;;9.15;;
39078;SDS011;24829;49.208;12.080;2022-09-13T06:33:33;12.75;;;9.02;;
39078;SDS011;24829;49.208;12.080;2022-09-13T06:36:00;14.48;;;9.13;;
39078;SDS011;24829;49.208;12.080;2022-09-13T06:38:27;28.40;;;9.40;;
39078;SDS011;24829;49.208;12.080;2022-09-13T06:41:03;13.05;;;9.35;;
39078;SDS011;24829;49.208;12.080;2022-09-13T06:43:30;11.43;;;9.88;;
39078;SDS011;24829;49.208;12.080;2022-09-13T06:46:06;11.70;;;9.63;;
39078;SDS011;24829;49.208;12.080;2022-09-13T06:48:34;14.60;;;10.10;;
39078;SDS011;24829;49.208;12.080;2022-09-13T06:51:01;14.13;;;10.45;;
39078;SDS011;24829;49.208;12.080;2022-09-13T06:53:29;12.93;;;10.32;;
39078;SDS011;24829;49.208;12.080;2022-09-13T06:56:17;15.32;;;10.80;;
39078;SDS011;24829;49.208;12.080;2022-09-13T06:58:44;12.73;;;10.73;;
39078;SDS011;24829;49.208;12.080;2022-09-13T07:03:45;13.13;;;10.85;;
39078;SDS011;24829;49.208;12.080;2022-09-13T07:06:13;17.17;;;9.57;;
39078;SDS011;24829;49.208;12.080;2022-09-13T07:08:41;10.65;;;9.40;;
39078;SDS011;24829;49.208;12.080;2022-09-13T07:11:08;11.57;;;10.13;;
39078;SDS011;24829;49.208;12.080;2022-09-13T07:13:35;11.82;;;9.80;;
39078;SDS011;24829;49.208;12.080;2022-09-13T07:16:06;11.27;;;9.38;;
39078;SDS011;24829;49.208;12.080;2022-09-13T07:18:34;10.60;;;9.30;;
39078;SDS011;24829;49.208;12.080;2022-09-13T07:21:01;11.80;;;9.38;;
39078;SDS011;24829;49.208;12.080;2022-09-13T07:23:29;14.98;;;11.23;;
39078;SDS011;24829;49.208;12.080;2022-09-13T07:25:55;12.80;;;8.93;;
39078;SDS011;24829;49.208;12.080;2022-09-13T07:28:26;13.30;;;10.50;;
39078;SDS011;24829;49.208;12.080;2022-09-13T07:30:53;11.88;;;9.65;;
39078;SDS011;24829;49.208;12.080;2022-09-13T07:33:19;15.93;;;10.60;;
39078;SDS011;24829;49.208;12.080;2022-09-13T07:35:45;12.07;;;10.68;;
39078;SDS011;24829;49.208;12.080;2022-09-13T07:38:10;12.80;;;10.60;;
39078;SDS011;24829;49.208;12.080;2022-09-13T07:40:36;16.17;;;11.77;;
39078;SDS011;24829;49.208;12.080;2022-09-13T07:43:01;15.55;;;10.45;;
39078;SDS011;24829;49.208;12.080;2022-09-13T07:45:27;13.25;;;11.85;;
39078;SDS011;24829;49.208;12.080;2022-09-13T07:47:53;14.02;;;11.93;;
39078;SDS011;24829;49.208;12.080;2022-09-13T07:50:19;17.27;;;12.70;;
39078;SDS011;24829;49.208;12.080;2022-09-13T07:52:45;12.50;;;11.20;;
39078;SDS011;24829;49.208;12.080;2022-09-13T07:55:10;14.13;;;11.70;;
39078;SDS011;24829;49.208;12.080;2022-09-13T07:57:36;15.20;;;11.40;;
39078;SDS011;24829;49.208;12.080;2022-09-13T08:00:02;14.02;;;11.07;;
39078;SDS011;24829;49.208;12.080;2022-09-13T08:02:29;13.48;;;11.07;;
39078;SDS011;24829;49.208;12.080;2022-09-13T08:04:55;12.68;;;11.25;;
39078;SDS011;24829;49.208;12.080;2022-09-13T08:07:20;14.88;;;11.13;;
39078;SDS011;24829;49.208;12.080;2022-09-13T08:09:46;13.13;;;11.48;;
39078;SDS011;24829;49.208;12.080;2022-09-13T08:12:11;12.25;;;10.55;;
39078;SDS011;24829;49.208;12.080;2022-09-13T08:14:37;12.55;;;11.07;;
39078;SDS011;24829;49.208;12.080;2022-09-13T08:17:02;14.43;;;10.70;;
39078;SDS011;24829;49.208;12.080;2022-09-13T08:19:28;13.73;;;10.57;;
39078;SDS011;24829;49.208;12.080;2022-09-13T08:21:53;11.05;;;9.95;;
39078;SDS011;24829;49.208;12.080;2022-09-13T08:24:19;12.60;;;10.18;;
39078;SDS011;24829;49.208;12.080;2022-09-13T08:26:46;10.10;;;9.10;;
39078;SDS011;24829;49.208;12.080;2022-09-13T08:29:12;11.52;;;9.68;;
39078;SDS011;24829;49.208;12.080;2022-09-13T08:31:39;12.25;;;9.07;;
39078;SDS011;24829;49.208;12.080;2022-09-13T08:34:06;9.35;;;7.45;;
39078;SDS011;24829;49.208;12.080;2022-09-13T08:36:35;11.82;;;7.72;;
39078;SDS011;24829;49.208;12.080;2022-09-13T08:39:01;12.45;;;8.93;;
39078;SDS011;24829;49.208;12.080;2022-09-13T08:46:27;11.52;;;7.60;;
39078;SDS011;24829;49.208;12.080;2022-09-13T08:49:39;10.52;;;7.55;;
39078;SDS011;24829;49.208;12.080;2022-09-13T08:51:48;8.55;;;7.13;;
39078;SDS011;24829;49.208;12.080;2022-09-13T08:54:17;7.10;;;6.40;;
39078;SDS011;24829;49.208;12.080;2022-09-13T09:08:28;11.15;;;7.35;;
39078;SDS011;24829;49.208;12.080;2022-09-13T09:10:58;7.05;;;5.85;;
39078;SDS011;24829;49.208;12.080;2022-09-13T09:13:30;8.60;;;6.82;;
39078;SDS011;24829;49.208;12.080;2022-09-13T09:16:00;8.75;;;6.60;;
39078;SDS011;24829;49.208;12.080;2022-09-13T09:18:48;10.77;;;5.65;;
39078;SDS011;24829;49.208;12.080;2022-09-13T09:21:17;10.73;;;6.38;;
39078;SDS011;24829;49.208;12.080;2022-09-13T09:23:53;8.60;;;6.18;;
39078;SDS011;24829;49.208;12.080;2022-09-13T09:26:20;10.25;;;6.85;;
39078;SDS011;24829;49.208;12.080;2022-09-13T09:28:53;8.13;;;6.50;;
39078;SDS011;24829;49.208;12.080;2022-09-13T09:33:59;8.02;;;6.78;;
39078;SDS011;24829;49.208;12.080;2022-09-13T09:37:17;10.00;;;5.80;;
39078;SDS011;24829;49.208;12.080;2022-09-13T09:39:48;7.13;;;5.82;;
39078;SDS011;24829;49.208;12.080;2022-09-13T09:42:16;9.82;;;6.18;;
39078;SDS011;24829;49.208;12.080;2022-09-13T09:44:52;9.40;;;6.32;;
39078;SDS011;24829;49.208;12.080;2022-09-13T09:47:28;9.18;;;6.25;;
39078;SDS011;24829;49.208;12.080;2022-09-13T09:50:09;7.20;;;6.18;;
39078;SDS011;24829;49.208;12.080;2022-09-13T09:57:53;5.75;;;5.20;;
39078;SDS011;24829;49.208;12.080;2022-09-13T10:00:22;7.60;;;5.88;;
39078;SDS011;24829;49.208;12.080;2022-09-13T10:02:50;7.18;;;4.90;;
39078;SDS011;24829;49.208;12.080;2022-09-13T10:05:19;8.45;;;5.30;;
39078;SDS011;24829;49.208;12.080;2022-09-13T10:07:57;11.25;;;7.47;;
39078;SDS011;24829;49.208;12.080;2022-09-13T10:11:02;6.90;;;5.70;;
39078;SDS011;24829;49.208;12.080;2022-09-13T10:13:23;8.55;;;5.32;;
39078;SDS011;24829;49.208;12.080;2022-09-13T10:18:23;9.77;;;8.88;;
39078;SDS011;24829;49.208;12.080;2022-09-13T10:21:04;8.30;;;6.57;;
39078;SDS011;24829;49.208;12.080;2022-09-13T10:23:34;8.95;;;6.22;;
39078;SDS011;24829;49.208;12.080;2022-09-13T10:28:35;12.27;;;8.52;;
39078;SDS011;24829;49.208;12.080;2022-09-13T10:31:27;6.80;;;6.10;;
39078;SDS011;24829;49.208;12.080;2022-09-13T10:34:24;9.65;;;5.95;;
39078;SDS011;24829;49.208;12.080;2022-09-13T10:37:01;7.32;;;6.60;;
39078;SDS011;24829;49.208;12.080;2022-09-13T10:39:36;8.93;;;5.82;;
39078;SDS011;24829;49.208;12.080;2022-09-13T10:42:31;7.57;;;5.65;;
39078;SDS011;24829;49.208;12.080;2022-09-13T10:45:02;7.57;;;6.22;;
39078;SDS011;24829;49.208;12.080;2022-09-13T10:49:57;8.38;;;6.90;;
39078;SDS011;24829;49.208;12.080;2022-09-13T10:52:37;10.25;;;8.25;;
39078;SDS011;24829;49.208;12.080;2022-09-13T10:57:42;8.30;;;6.70;;
39078;SDS011;24829;49.208;12.080;2022-09-13T11:00:44;9.25;;;6.65;;
39078;SDS011;24829;49.208;12.080;2022-09-13T11:03:49;9.38;;;6.60;;
39078;SDS011;24829;49.208;12.080;2022-09-13T11:09:32;12.23;;;7.05;;
39078;SDS011;24829;49.208;12.080;2022-09-13T11:12:07;7.72;;;6.68;;
39078;SDS011;24829;49.208;12.080;2022-09-13T11:23:21;10.85;;;6.15;;
39078;SDS011;24829;49.208;12.080;2022-09-13T11:26:21;7.72;;;6.13;;
39078;SDS011;24829;49.208;12.080;2022-09-13T11:28:54;8.73;;;5.70;;
39078;SDS011;24829;49.208;12.080;2022-09-13T11:31:39;7.72;;;5.60;;
39078;SDS011;24829;49.208;12.080;2022-09-13T11:34:32;5.90;;;5.30;;
39078;SDS011;24829;49.208;12.080;2022-09-13T11:42:28;7.80;;;5.65;;
39078;SDS011;24829;49.208;12.080;2022-09-13T11:47:55;8.77;;;5.95;;
39078;SDS011;24829;49.208;12.080;2022-09-13T11:53:57;7.13;;;4.57;;
39078;SDS011;24829;49.208;12.080;2022-09-13T11:56:41;7.18;;;5.13;;
39078;SDS011;24829;49.208;12.080;2022-09-13T12:01:40;13.18;;;9.48;;
39078;SDS011;24829;49.208;12.080;2022-09-13T12:04:21;7.95;;;6.03;;
39078;SDS011;24829;49.208;12.080;2022-09-13T12:07:02;7.95;;;6.03;;
39078;SDS011;24829;49.208;12.080;2022-09-13T12:09:37;8.00;;;6.65;;
39078;SDS011;24829;49.208;12.080;2022-09-13T12:12:09;8.73;;;5.80;;
39078;SDS011;24829;49.208;12.080;2022-09-13T12:15:21;10.50;;;6.15;;
39078;SDS011;24829;49.208;12.080;2022-09-13T12:17:42;8.23;;;6.75;;
39078;SDS011;24829;49.208;12.080;2022-09-13T12:20:17;6.88;;;5.50;;
39078;SDS011;24829;49.208;12.080;2022-09-13T12:22:53;10.50;;;6.60;;
39078;SDS011;24829;49.208;12.080;2022-09-13T12:25:23;9.27;;;5.15;;
39078;SDS011;24829;49.208;12.080;2022-09-13T12:28:02;6.80;;;4.82;;
39078;SDS011;24829;49.208;12.080;2022-09-13T12:30:44;6.00;;;4.78;;
39078;SDS011;24829;49.208;12.080;2022-09-13T12:33:20;5.20;;;4.65;;
39078;SDS011;24829;49.208;12.080;2022-09-13T12:49:55;7.82;;;5.30;;
39078;SDS011;24829;49.208;12.080;2022-09-13T12:52:39;6.30;;;5.53;;
39078;SDS011;24829;49.208;12.080;2022-09-13T12:55:17;7.15;;;5.32;;
39078;SDS011;24829;49.208;12.080;2022-09-13T13:03:34;11.15;;;5.72;;
39078;SDS011;24829;49.208;12.080;2022-09-13T13:06:50;6.85;;;5.43;;
39078;SDS011;24829;49.208;12.080;2022-09-13T13:09:06;8.07;;;6.25;;
39078;SDS011;24829;49.208;12.080;2022-09-13T13:11:46;8.13;;;4.47;;
39078;SDS011;24829;49.208;12.080;2022-09-13T13:26:02;6.78;;;5.10;;
39078;SDS011;24829;49.208;12.080;2022-09-13T13:42:31;11.32;;;5.75;;
39078;SDS011;24829;49.208;12.080;2022-09-13T13:45:12;8.68;;;5.32;;
39078;SDS011;24829;49.208;12.080;2022-09-13T13:47:52;8.45;;;5.70;;
39078;SDS011;24829;49.208;12.080;2022-09-13T13:50:19;7.15;;;5.13;;
39078;SDS011;24829;49.208;12.080;2022-09-13T14:00:57;5.90;;;4.90;;
39078;SDS011;24829;49.208;12.080;2022-09-13T14:03:39;6.60;;;4.53;;
39078;SDS011;24829;49.208;12.080;2022-09-13T14:11:50;5.60;;;4.35;;
39078;SDS011;24829;49.208;12.080;2022-09-13T14:20:13;8.30;;;4.95;;
39078;SDS011;24829;49.208;12.080;2022-09-13T14:22:41;8.73;;;4.90;;
39078;SDS011;24829;49.208;12.080;2022-09-13T14:27:49;6.17;;;4.30;;
39078;SDS011;24829;49.208;12.080;2022-09-13T14:30:21;6.45;;;4.95;;
39078;SDS011;24829;49.208;12.080;2022-09-13T14:32:52;11.70;;;6.03;;
39078;SDS011;24829;49.208;12.080;2022-09-13T14:35:38;5.30;;;4.80;;
39078;SDS011;24829;49.208;12.080;2022-09-13T14:38:09;12.85;;;4.68;;
39078;SDS011;24829;49.208;12.080;2022-09-13T14:40:35;5.25;;;4.80;;
39078;SDS011;24829;49.208;12.080;2022-09-13T14:43:04;6.30;;;5.50;;
39078;SDS011;24829;49.208;12.080;2022-09-13T14:45:41;10.02;;;5.53;;
39078;SDS011;24829;49.208;12.080;2022-09-13T14:48:20;6.88;;;5.05;;
39078;SDS011;24829;49.208;12.080;2022-09-13T14:50:56;7.85;;;5.03;;
39078;SDS011;24829;49.208;12.080;2022-09-13T14:53:24;10.55;;;5.03;;
39078;SDS011;24829;49.208;12.080;2022-09-13T14:56:06;5.40;;;4.38;;
39078;SDS011;24829;49.208;12.080;2022-09-13T15:01:15;6.85;;;5.18;;
39078;SDS011;24829;49.208;12.080;2022-09-13T15:03:45;6.70;;;5.32;;
39078;SDS011;24829;49.208;12.080;2022-09-13T15:06:22;5.70;;;4.65;;
39078;SDS011;24829;49.208;12.080;2022-09-13T15:08:50;12.02;;;5.82;;
39078;SDS011;24829;49.208;12.080;2022-09-13T15:11:28;7.47;;;5.78;;
39078;SDS011;24829;49.208;12.080;2022-09-13T15:16:45;6.75;;;5.15;;
39078;SDS011;24829;49.208;12.080;2022-09-13T15:22:23;10.32;;;4.72;;
39078;SDS011;24829;49.208;12.080;2022-09-13T15:24:50;7.72;;;5.70;;
39078;SDS011;24829;49.208;12.080;2022-09-13T15:29:49;11.05;;;5.30;;
39078;SDS011;24829;49.208;12.080;2022-09-13T15:32:20;8.85;;;5.63;;
39078;SDS011;24829;49.208;12.080;2022-09-13T15:34:48;14.15;;;5.60;;
39078;SDS011;24829;49.208;12.080;2022-09-13T15:37:14;8.00;;;5.30;;
39078;SDS011;24829;49.208;12.080;2022-09-13T15:42:25;6.10;;;4.82;;
39078;SDS011;24829;49.208;12.080;2022-09-13T15:44:51;8.95;;;5.20;;
39078;SDS011;24829;49.208;12.080;2022-09-13T15:47:17;7.97;;;6.30;;
39078;SDS011;24829;49.208;12.080;2022-09-13T15:49:48;8.18;;;5.97;;
39078;SDS011;24829;49.208;12.080;2022-09-13T15:52:15;6.65;;;5.53;;
39078;SDS011;24829;49.208;12.080;2022-09-13T15:54:43;10.15;;;5.30;;
39078;SDS011;24829;49.208;12.080;2022-09-13T15:57:24;7.45;;;5.43;;
39078;SDS011;24829;49.208;12.080;2022-09-13T15:59:53;8.57;;;5.60;;
39078;SDS011;24829;49.208;12.080;2022-09-13T16:02:22;9.20;;;5.20;;
39078;SDS011;24829;49.208;12.080;2022-09-13T16:07:19;10.30;;;5.82;;
39078;SDS011;24829;49.208;12.080;2022-09-13T16:09:45;8.55;;;6.20;;
39078;SDS011;24829;49.208;12.080;2022-09-13T16:12:12;9.57;;;5.80;;
39078;SDS011;24829;49.208;12.080;2022-09-13T16:14:38;9.23;;;5.88;;
39078;SDS011;24829;49.208;12.080;2022-09-13T16:17:11;5.55;;;4.95;;
39078;SDS011;24829;49.208;12.080;2022-09-13T16:19:44;6.78;;;6.03;;
39078;SDS011;24829;49.208;12.080;2022-09-13T16:22:09;9.80;;;5.72;;
39078;SDS011;24829;49.208;12.080;2022-09-13T16:24:35;7.25;;;5.25;;
39078;SDS011;24829;49.208;12.080;2022-09-13T16:27:01;7.65;;;5.47;;
39078;SDS011;24829;49.208;12.080;2022-09-13T16:29:27;8.00;;;5.00;;
39078;SDS011;24829;49.208;12.080;2022-09-13T16:31:53;6.72;;;6.00;;
39078;SDS011;24829;49.208;12.080;2022-09-13T16:34:18;7.28;;;5.40;;
39078;SDS011;24829;49.208;12.080;2022-09-13T16:36:45;7.88;;;6.95;;
39078;SDS011;24829;49.208;12.080;2022-09-13T16:39:10;8.98;;;5.68;;
39078;SDS011;24829;49.208;12.080;2022-09-13T16:41:37;8.63;;;5.80;;
39078;SDS011;24829;49.208;12.080;2022-09-13T16:44:04;6.93;;;5.95;;
39078;SDS011;24829;49.208;12.080;2022-09-13T16:46:30;8.80;;;6.20;;
39078;SDS011;24829;49.208;12.080;2022-09-13T16:48:55;8.90;;;5.50;;
39078;SDS011;24829;49.208;12.080;2022-09-13T16:51:22;5.55;;;5.05;;
39078;SDS011;24829;49.208;12.080;2022-09-13T16:53:48;10.13;;;6.25;;
39078;SDS011;24829;49.208;12.080;2022-09-13T16:56:16;7.13;;;5.60;;
39078;SDS011;24829;49.208;12.080;2022-09-13T16:58:44;8.32;;;6.15;;
39078;SDS011;24829;49.208;12.080;2022-09-13T17:01:14;9.20;;;5.97;;
39078;SDS011;24829;49.208;12.080;2022-09-13T17:03:41;7.88;;;5.85;;
39078;SDS011;24829;49.208;12.080;2022-09-13T17:06:08;10.32;;;5.47;;
39078;SDS011;24829;49.208;12.080;2022-09-13T17:08:36;7.47;;;6.50;;
39078;SDS011;24829;49.208;12.080;2022-09-13T17:11:10;6.45;;;5.72;;
39078;SDS011;24829;49.208;12.080;2022-09-13T17:13:37;8.80;;;5.32;;
39078;SDS011;24829;49.208;12.080;2022-09-13T17:16:04;9.23;;;5.55;;
39078;SDS011;24829;49.208;12.080;2022-09-13T17:18:31;13.80;;;6.18;;
39078;SDS011;24829;49.208;12.080;2022-09-13T17:20:57;6.97;;;6.05;;
39078;SDS011;24829;49.208;12.080;2022-09-13T17:23:23;10.15;;;5.60;;
39078;SDS011;24829;49.208;12.080;2022-09-13T17:25:49;6.60;;;5.90;;
39078;SDS011;24829;49.208;12.080;2022-09-13T17:28:16;6.78;;;5.88;;
39078;SDS011;24829;49.208;12.080;2022-09-13T17:30:42;7.35;;;6.32;;
39078;SDS011;24829;49.208;12.080;2022-09-13T17:33:10;9.05;;;6.47;;
39078;SDS011;24829;49.208;12.080;2022-09-13T17:35:36;10.43;;;6.07;;
39078;SDS011;24829;49.208;12.080;2022-09-13T17:38:03;7.72;;;5.38;;
39078;SDS011;24829;49.208;12.080;2022-09-13T17:40:29;10.90;;;6.32;;
39078;SDS011;24829;49.208;12.080;2022-09-13T17:42:55;10.57;;;5.63;;
39078;SDS011;24829;49.208;12.080;2022-09-13T17:45:21;11.93;;;6.45;;
39078;SDS011;24829;49.208;12.080;2022-09-13T17:47:47;11.80;;;7.38;;
39078;SDS011;24829;49.208;12.080;2022-09-13T17:50:16;12.98;;;6.78;;
39078;SDS011;24829;49.208;12.080;2022-09-13T17:52:42;8.85;;;6.78;;
39078;SDS011;24829;49.208;12.080;2022-09-13T17:55:07;8.02;;;6.35;;
39078;SDS011;24829;49.208;12.080;2022-09-13T17:57:33;8.15;;;6.10;;
39078;SDS011;24829;49.208;12.080;2022-09-13T17:59:59;9.80;;;7.00;;
39078;SDS011;24829;49.208;12.080;2022-09-13T18:02:25;8.27;;;6.63;;
39078;SDS011;24829;49.208;12.080;2022-09-13T18:04:51;10.32;;;7.28;;
39078;SDS011;24829;49.208;12.080;2022-09-13T18:07:18;8.00;;;7.18;;
39078;SDS011;24829;49.208;12.080;2022-09-13T18:09:43;10.20;;;7.47;;
39078;SDS011;24829;49.208;12.080;2022-09-13T18:12:09;12.80;;;7.68;;
39078;SDS011;24829;49.208;12.080;2022-09-13T18:14:36;7.38;;;6.60;;
39078;SDS011;24829;49.208;12.080;2022-09-13T18:17:01;12.02;;;7.05;;